METAR Data
IDs: Format: Raw Decoded Include TAF

Data at: 1453 UTC 22 Apr 2021

KSGF 221352Z 16004KT 10SM CLR 06/M04 A3025 RMK AO2 SLP249 T00561039